Time;durP1;ratioP1;P1;durP2;ratioP2;P2;SDS_P1;SDS_P2;PMS_P1;PMS_P2;Temp;Humidity;BMP_temperature;BMP_pressure;BME280_temperature;BME280_humidity;BME280_pressure;Samples;Min_cycle;Max_cycle;Signal;HPM_P1;HPM_P2
2021/11/25 00:01:33;;;;;;;124.87;57.20;;;;;;;-3.17;78.02;101097.06;1447556;89;21310;-92
2021/11/25 00:04:00;;;;;;;124.40;57.15;;;;;;;-3.19;78.19;101095.44;1442326;89;21420;-92
2021/11/25 00:06:26;;;;;;;124.70;58.35;;;;;;;-3.18;77.63;101095.38;1459384;88;21561;-90
2021/11/25 00:08:53;;;;;;;129.85;60.05;;;;;;;-3.20;77.54;101093.27;1451683;89;21397;-92
2021/11/25 00:11:21;;;;;;;120.02;56.45;;;;;;;-3.21;77.53;101088.15;1453328;89;21412;-92
2021/11/25 00:13:48;;;;;;;120.72;59.80;;;;;;;-3.25;77.42;101086.52;1459761;89;21412;-92
2021/11/25 00:16:18;;;;;;;122.13;58.10;;;;;;;-3.27;77.75;101090.92;1451702;89;21419;-92
2021/11/25 00:18:46;;;;;;;120.97;55.15;;;;;;;-3.29;77.59;101090.95;1446135;89;21383;-93
2021/11/25 00:21:13;;;;;;;116.65;55.12;;;;;;;-3.28;77.79;101095.67;1446986;88;21473;-92
2021/11/25 00:23:48;;;;;;;130.07;58.15;;;;;;;-3.30;77.81;101090.55;1453735;89;21509;-93
2021/11/25 00:26:18;;;;;;;116.77;52.93;;;;;;;-3.28;77.99;101087.91;1457325;89;21502;-94
2021/11/25 00:28:45;;;;;;;121.13;56.02;;;;;;;-3.26;77.83;101086.13;1464024;89;21414;-92
2021/11/25 00:31:15;;;;;;;109.45;52.40;;;;;;;-3.24;77.57;101086.95;1441335;89;21376;-93
2021/11/25 00:33:42;;;;;;;120.10;50.98;;;;;;;-3.24;77.18;101082.61;1459922;89;21418;-93
2021/11/25 00:36:11;;;;;;;109.52;52.03;;;;;;;-3.23;77.28;101083.00;1457199;89;21384;-92
2021/11/25 00:38:38;;;;;;;114.97;51.10;;;;;;;-3.28;76.87;101086.19;1455916;89;22631;-92
2021/11/25 00:41:06;;;;;;;113.10;53.42;;;;;;;-3.36;76.63;101086.00;1445102;89;21397;-91
2021/11/25 00:43:33;;;;;;;112.12;52.40;;;;;;;-3.41;76.56;101080.94;1459450;89;21493;-91
2021/11/25 00:46:00;;;;;;;119.85;58.98;;;;;;;-3.44;76.65;101081.03;1435656;89;22375;-93
2021/11/25 00:48:28;;;;;;;107.85;51.40;;;;;;;-3.48;76.75;101089.75;1449881;89;21301;-92
2021/11/25 00:51:03;;;;;;;111.80;51.18;;;;;;;-3.52;76.85;101083.82;1457237;89;21464;-94
2021/11/25 00:53:32;;;;;;;118.47;51.45;;;;;;;-3.55;76.93;101083.06;1464294;89;21383;-93
2021/11/25 00:56:00;;;;;;;117.08;54.35;;;;;;;-3.58;77.11;101087.03;1457623;89;21347;-93
2021/11/25 00:58:27;;;;;;;120.90;51.85;;;;;;;-3.64;77.54;101078.53;1454404;89;21361;-91
2021/11/25 01:00:56;;;;;;;104.92;49.65;;;;;;;-3.64;77.58;101081.13;1460076;89;21420;-93
2021/11/25 01:03:23;;;;;;;114.20;51.37;;;;;;;-3.62;77.63;101074.63;1454636;89;21362;-92
2021/11/25 01:05:51;;;;;;;110.35;53.68;;;;;;;-3.61;77.79;101076.31;1450337;89;21427;-93
2021/11/25 01:08:22;;;;;;;124.10;55.60;;;;;;;-3.51;77.93;101074.31;1450545;89;21390;-93
2021/11/25 01:10:49;;;;;;;113.72;49.13;;;;;;;-3.46;77.82;101068.57;1463318;89;21593;-94
2021/11/25 01:13:18;;;;;;;107.17;50.03;;;;;;;-3.40;77.32;101067.09;1450101;89;21427;-93
2021/11/25 01:15:48;;;;;;;110.12;50.25;;;;;;;-3.38;76.84;101060.59;1430290;89;21480;-92
2021/11/25 01:18:18;;;;;;;79.30;37.78;;;;;;;-3.42;76.54;101056.80;1451385;89;21391;-92
2021/11/25 01:20:49;;;;;;;102.97;47.17;;;;;;;-3.46;76.65;101055.62;1457685;89;21966;-91
2021/11/25 01:23:21;;;;;;;104.47;51.45;;;;;;;-3.43;76.74;101054.25;1456715;89;21413;-92
2021/11/25 01:25:51;;;;;;;109.95;47.23;;;;;;;-3.40;76.55;101054.16;1444780;89;21627;-90
2021/11/25 01:28:24;;;;;;;117.65;52.55;;;;;;;-3.34;76.73;101057.02;1453531;88;21463;-90
2021/11/25 01:30:58;;;;;;;99.65;47.08;;;;;;;-3.32;76.73;101047.48;1447422;89;21436;-91
2021/11/25 01:33:29;;;;;;;89.47;45.55;;;;;;;-3.28;77.37;101038.30;1449509;89;22293;-91
2021/11/25 01:35:58;;;;;;;102.15;47.20;;;;;;;-3.23;76.84;101040.28;1454780;89;21316;-90
2021/11/25 01:38:32;;;;;;;97.08;50.25;;;;;;;-3.19;76.55;101045.79;1457206;89;21575;-91
2021/11/25 01:40:59;;;;;;;102.40;48.13;;;;;;;-3.12;76.35;101050.78;1455478;88;21405;-90
2021/11/25 01:43:29;;;;;;;96.63;48.15;;;;;;;-3.04;76.42;101037.16;1460011;89;21317;-91
2021/11/25 01:46:01;;;;;;;106.40;48.40;;;;;;;-3.04;76.21;101043.64;1456449;89;21479;-91
2021/11/25 01:48:36;;;;;;;107.35;51.92;;;;;;;-3.05;76.56;101032.86;1459163;89;21559;-91
2021/11/25 01:51:04;;;;;;;106.83;49.27;;;;;;;-3.05;76.44;101028.97;1434714;89;21421;-91
2021/11/25 01:53:31;;;;;;;106.25;52.70;;;;;;;-3.02;76.07;101031.05;1456873;89;22590;-91
2021/11/25 01:55:58;;;;;;;96.35;48.00;;;;;;;-3.01;76.15;101028.00;1445696;89;21434;-90
2021/11/25 01:58:26;;;;;;;97.05;47.78;;;;;;;-3.02;76.23;101019.39;1451559;89;21399;-91
2021/11/25 02:00:57;;;;;;;100.05;47.88;;;;;;;-2.99;76.37;101019.30;1456784;89;21325;-91
2021/11/25 02:03:30;;;;;;;92.47;47.48;;;;;;;-2.90;76.54;101020.76;1457722;89;21414;-92
2021/11/25 02:05:57;;;;;;;95.45;47.48;;;;;;;-2.83;76.41;101017.06;1456863;89;21360;-91
2021/11/25 02:08:25;;;;;;;94.45;46.50;;;;;;;-2.74;76.40;101015.47;1463548;89;21410;-90
2021/11/25 02:10:56;;;;;;;93.20;47.20;;;;;;;-2.63;76.46;101015.59;1453439;89;21317;-91
2021/11/25 02:13:23;;;;;;;111.57;49.65;;;;;;;-2.57;76.49;101009.75;1452099;88;21391;-92
2021/11/25 02:16:00;;;;;;;98.20;48.98;;;;;;;-2.59;76.27;101010.70;1449330;89;21463;-91
2021/11/25 02:18:28;;;;;;;105.37;50.28;;;;;;;-2.60;76.42;101008.56;1454348;89;21348;-91
2021/11/25 02:21:00;;;;;;;94.50;48.30;;;;;;;-2.50;76.78;101000.05;1462517;89;21390;-91
2021/11/25 02:23:28;;;;;;;95.57;49.33;;;;;;;-2.40;76.74;101005.31;1453199;89;21383;-91
2021/11/25 02:25:58;;;;;;;98.42;48.05;;;;;;;-2.31;76.84;101006.30;1454974;89;22410;-92
2021/11/25 02:28:32;;;;;;;97.85;48.95;;;;;;;-2.28;76.65;101007.95;1459062;89;21457;-91
2021/11/25 02:31:08;;;;;;;86.75;47.85;;;;;;;-2.24;76.82;101000.91;1455479;88;21451;-91
2021/11/25 02:33:42;;;;;;;94.62;48.00;;;;;;;-2.18;76.89;100991.64;1432807;89;21396;-88
2021/11/25 02:36:11;;;;;;;101.75;50.38;;;;;;;-2.13;76.83;100992.30;1457823;89;21390;-92
2021/11/25 02:38:39;;;;;;;91.05;48.38;;;;;;;-2.06;77.01;100986.02;1458487;89;21383;-91
2021/11/25 02:41:07;;;;;;;99.58;50.00;;;;;;;-1.98;76.99;100989.20;1466960;89;21296;-91
2021/11/25 02:43:36;;;;;;;103.92;49.00;;;;;;;-1.93;76.89;100982.53;1448258;89;21345;-91
2021/11/25 02:46:14;;;;;;;91.00;48.50;;;;;;;-1.91;76.74;100975.55;1455057;89;21442;-90
2021/11/25 02:48:49;;;;;;;90.97;45.33;;;;;;;-1.90;76.92;100976.81;1463980;89;23689;-90
2021/11/25 02:51:26;;;;;;;91.92;47.25;;;;;;;-1.93;77.26;100975.59;1450312;89;21485;-91
2021/11/25 02:53:55;;;;;;;91.20;46.50;;;;;;;-1.95;76.93;100977.88;1458840;89;22624;-89
2021/11/25 02:56:31;;;;;;;94.13;47.03;;;;;;;-1.90;77.04;100981.12;1448309;89;23295;-92
2021/11/25 02:59:00;;;;;;;97.37;47.13;;;;;;;-1.87;77.37;100967.62;1458864;89;21280;-91
2021/11/25 03:01:38;;;;;;;86.75;45.23;;;;;;;-1.83;77.83;100970.48;1457233;89;21442;-91
2021/11/25 03:04:08;;;;;;;100.87;49.58;;;;;;;-1.75;77.85;100974.11;1455748;89;21377;-91
2021/11/25 03:06:37;;;;;;;103.40;46.90;;;;;;;-1.79;77.24;100975.10;1457622;89;22294;-89
2021/11/25 03:09:06;;;;;;;91.02;48.83;;;;;;;-1.74;77.53;100967.16;1460261;89;21325;-90
2021/11/25 03:11:36;;;;;;;94.62;48.30;;;;;;;-1.72;77.56;100964.07;1434363;89;21420;-90
2021/11/25 03:14:09;;;;;;;89.30;46.00;;;;;;;-1.71;77.87;100969.19;1448018;89;21396;-89
2021/11/25 03:16:39;;;;;;;86.08;46.55;;;;;;;-1.63;77.77;100968.46;1459224;89;21383;-90
2021/11/25 03:19:06;;;;;;;89.55;48.87;;;;;;;-1.54;77.84;100956.05;1452961;89;21470;-89
2021/11/25 03:21:33;;;;;;;95.90;47.85;;;;;;;-1.53;77.88;100957.27;1461500;89;21406;-88
2021/11/25 03:24:00;;;;;;;94.80;48.30;;;;;;;-1.51;77.75;100950.28;1453746;89;21435;-88
2021/11/25 03:26:29;;;;;;;79.17;44.33;;;;;;;-1.44;77.87;100945.27;1451019;89;21332;-89
2021/11/25 03:29:00;;;;;;;93.75;50.17;;;;;;;-1.40;78.36;100940.34;1459202;89;21449;-90
2021/11/25 03:31:31;;;;;;;112.20;58.87;;;;;;;-1.41;77.72;100937.36;1452987;89;22359;-89
2021/11/25 03:33:59;;;;;;;;;;;;;;;-1.42;77.78;100937.40;1455016;89;21514;-91
2021/11/25 03:36:27;;;;;;;137.88;63.63;;;;;;;-1.37;78.07;100940.22;1454855;89;20344;-90
2021/11/25 03:38:55;;;;;;;100.90;52.40;;;;;;;-1.38;78.42;100937.23;1453493;89;21435;-90
2021/11/25 03:41:23;;;;;;;88.55;48.23;;;;;;;-1.38;78.16;100937.70;1446769;89;21427;-89
2021/11/25 03:43:51;;;;;;;101.40;47.95;;;;;;;-1.42;78.58;100930.91;1448100;89;21360;-89
2021/11/25 03:46:19;;;;;;;84.80;44.53;;;;;;;-1.45;78.30;100929.27;1449332;89;21428;-89
2021/11/25 03:48:46;;;;;;;90.55;47.05;;;;;;;-1.48;78.87;100921.60;1454560;89;21532;-89
2021/11/25 03:51:15;;;;;;;77.45;42.35;;;;;;;-1.44;78.86;100924.92;1456324;89;22442;-90
2021/11/25 03:53:44;;;;;;;84.20;44.63;;;;;;;-1.43;79.00;100926.63;1448575;89;21509;-90
2021/11/25 03:56:13;;;;;;;73.55;42.60;;;;;;;-1.42;79.05;100917.47;1457853;89;21383;-91
2021/11/25 03:58:41;;;;;;;75.78;41.40;;;;;;;-1.36;79.15;100917.69;1453638;89;21354;-91
2021/11/25 04:01:10;;;;;;;77.42;43.23;;;;;;;-1.29;79.40;100913.95;1455092;89;21382;-91
2021/11/25 04:03:40;;;;;;;75.50;40.23;;;;;;;-1.27;79.28;100906.09;1459382;89;21316;-91
2021/11/25 04:06:07;;;;;;;81.78;46.10;;;;;;;-1.23;79.46;100911.58;1463960;89;21435;-90
2021/11/25 04:08:35;;;;;;;80.30;43.42;;;;;;;-1.23;79.17;100902.48;1456423;89;21361;-90
2021/11/25 04:11:08;;;;;;;75.57;42.95;;;;;;;-1.25;79.29;100901.69;1462184;89;21391;-91
2021/11/25 04:13:36;;;;;;;70.37;40.43;;;;;;;-1.22;79.51;100902.41;1455234;89;21420;-90
2021/11/25 04:16:05;;;;;;;72.92;40.65;;;;;;;-1.18;79.75;100895.33;1439293;89;21368;-91
2021/11/25 04:18:33;;;;;;;68.15;39.48;;;;;;;-1.14;79.78;100899.52;1460101;89;21368;-91
2021/11/25 04:21:00;;;;;;;66.57;40.35;;;;;;;-1.11;79.68;100901.98;1451121;89;21488;-92
2021/11/25 04:23:28;;;;;;;76.42;43.85;;;;;;;-1.11;79.48;100896.79;1456973;89;21420;-90
2021/11/25 04:25:55;;;;;;;81.55;44.73;;;;;;;-1.09;79.96;100887.19;1455938;89;21355;-91
2021/11/25 04:28:28;;;;;;;85.12;44.18;;;;;;;-1.02;79.62;100885.18;1461676;89;21323;-91
2021/11/25 04:36:34;;;;;;;81.37;42.33;;;;;;;-0.97;79.23;100871.55;1453106;89;21450;-89
2021/11/25 04:39:06;;;;;;;72.55;41.23;;;;;;;-0.95;79.40;100869.29;1431314;88;21310;-93
2021/11/25 04:41:35;;;;;;;71.85;40.78;;;;;;;-0.98;79.77;100872.02;1464513;88;21428;-93
2021/11/25 04:44:12;;;;;;;94.17;49.23;;;;;;;-1.04;79.36;100879.19;1442158;89;21354;-93
2021/11/25 04:46:41;;;;;;;111.17;63.23;;;;;;;-1.15;79.86;100873.16;1443692;90;21796;-93
2021/11/25 04:49:09;;;;;;;131.78;69.77;;;;;;;-1.17;80.07;100868.47;1457359;87;21445;-93
2021/11/25 04:51:37;;;;;;;116.85;66.42;;;;;;;-1.21;79.80;100861.69;1432946;88;21612;-93
2021/11/25 04:54:07;;;;;;;119.72;62.93;;;;;;;-1.21;80.07;100853.89;1481965;88;21338;-92
2021/11/25 04:56:40;;;;;;;103.40;57.10;;;;;;;-1.29;80.55;100863.78;1470906;88;21375;-93
2021/11/25 04:59:08;;;;;;;92.65;51.15;;;;;;;-1.41;81.03;100861.19;1451762;88;21419;-93
2021/11/25 05:01:35;;;;;;;100.47;53.58;;;;;;;-1.40;80.42;100844.72;1462808;88;21331;-92
2021/11/25 05:04:05;;;;;;;88.12;48.23;;;;;;;-1.38;80.36;100841.16;1450869;88;21397;-92
2021/11/25 05:06:35;;;;;;;78.25;43.75;;;;;;;-1.41;80.55;100838.69;1484878;88;21309;-93
2021/11/25 05:09:04;;;;;;;83.67;44.48;;;;;;;-1.55;81.10;100837.52;1449930;88;22307;-92
2021/11/25 05:11:37;;;;;;;79.35;43.78;;;;;;;-1.65;81.14;100833.99;1462127;89;21413;-93
2021/11/25 05:14:04;;;;;;;88.37;47.25;;;;;;;-1.63;81.10;100834.78;1448007;89;21435;-91
2021/11/25 05:16:44;;;;;;;83.00;46.15;;;;;;;-1.59;81.83;100845.88;1449655;89;21316;-91
2021/11/25 05:19:17;;;;;;;98.33;53.10;;;;;;;-1.61;81.07;100847.72;1472380;89;21408;-92
2021/11/25 05:21:49;;;;;;;100.25;53.80;;;;;;;-1.62;80.78;100842.95;1447112;89;21563;-90
2021/11/25 05:24:18;;;;;;;99.28;52.55;;;;;;;-1.60;80.98;100825.58;1442830;89;21399;-92
2021/11/25 05:26:53;;;;;;;105.00;54.45;;;;;;;-1.54;80.87;100824.95;1449619;89;21377;-92
2021/11/25 05:29:26;;;;;;;100.87;55.43;;;;;;;-1.63;80.70;100833.48;1450767;89;21424;-93
2021/11/25 05:31:54;;;;;;;105.95;55.50;;;;;;;-1.75;80.57;100833.13;1456760;89;21375;-93
2021/11/25 05:34:21;;;;;;;111.08;57.98;;;;;;;-1.74;80.96;100838.70;1412063;88;21618;-93
2021/11/25 05:37:08;;;;;;;116.25;64.75;;;;;;;-1.70;80.88;100844.16;1418637;90;22303;-92
2021/11/25 05:39:36;;;;;;;126.58;67.78;;;;;;;-1.69;80.61;100851.06;1424895;91;23415;-94
2021/11/25 05:42:04;;;;;;;136.40;77.55;;;;;;;-1.78;81.01;100850.09;1424474;89;21701;-92
2021/11/25 05:44:31;;;;;;;115.60;61.88;;;;;;;-1.79;80.98;100848.41;1474271;85;21552;-92
2021/11/25 05:46:59;;;;;;;101.35;54.03;;;;;;;-1.78;81.39;100838.41;1514170;85;22878;-93
2021/11/25 05:49:27;;;;;;;106.52;53.08;;;;;;;-1.89;81.28;100840.98;1521095;85;21462;-92
2021/11/25 05:51:59;;;;;;;99.75;50.30;;;;;;;-1.98;81.85;100838.74;1462973;87;21273;-93
2021/11/25 05:54:37;;;;;;;108.17;57.30;;;;;;;-2.08;82.07;100829.59;1458404;88;21564;-92
2021/11/25 05:57:13;;;;;;;106.52;58.02;;;;;;;-2.02;81.66;100825.93;1497355;85;21309;-93
2021/11/25 06:02:14;;;;;;;98.92;52.33;;;;;;;-1.89;81.76;100817.63;1422710;90;21502;-93
2021/11/25 06:07:12;;;;;;;107.12;58.70;;;;;;;-1.87;81.84;100820.15;1440882;85;22299;-93
2021/11/25 06:12:09;;;;;;;112.75;60.95;;;;;;;-1.91;81.94;100828.51;1395984;87;23359;-93
2021/11/25 06:17:05;;;;;;;108.05;59.20;;;;;;;-1.77;82.28;100829.74;1403929;91;21710;-90
2021/11/25 06:19:33;;;;;;;123.53;58.75;;;;;;;-1.73;82.05;100823.06;1413656;92;21459;-88
2021/11/25 06:22:00;;;;;;;109.60;57.55;;;;;;;-1.65;82.25;100826.20;1412518;92;22323;-88
2021/11/25 06:24:29;;;;;;;103.12;54.42;;;;;;;-1.55;82.47;100815.45;1416785;92;21996;-87
2021/11/25 06:26:56;;;;;;;150.80;57.67;;;;;;;-1.47;82.06;100816.00;1410090;92;21347;-85
2021/11/25 06:29:24;;;;;;;117.37;57.90;;;;;;;-1.47;82.00;100816.84;1418621;92;21370;-91
2021/11/25 06:31:51;;;;;;;104.87;54.77;;;;;;;-1.52;81.76;100820.55;1417631;92;22316;-86
2021/11/25 06:34:19;;;;;;;105.25;57.17;;;;;;;-1.53;82.04;100817.55;1417203;92;22088;-87
2021/11/25 06:36:46;;;;;;;111.17;59.15;;;;;;;-1.47;82.12;100820.73;1403625;92;22125;-87
2021/11/25 06:39:16;;;;;;;112.42;60.10;;;;;;;-1.38;82.04;100808.70;1411022;92;21533;-88
2021/11/25 06:41:44;;;;;;;108.15;56.98;;;;;;;-1.26;82.24;100806.52;1411965;92;21518;-89
2021/11/25 06:44:12;;;;;;;103.22;59.83;;;;;;;-1.14;82.13;100795.61;1408080;92;22545;-87
2021/11/25 06:46:41;;;;;;;100.10;55.45;;;;;;;-1.08;82.11;100794.05;1393535;92;21783;-87
2021/11/25 06:49:11;;;;;;;101.10;54.63;;;;;;;-1.04;82.34;100802.09;1413934;92;21505;-87
2021/11/25 06:51:41;;;;;;;91.72;48.30;;;;;;;-1.03;83.28;100796.01;1398285;92;21561;-87
2021/11/25 06:54:08;;;;;;;90.72;49.85;;;;;;;-0.95;83.02;100794.36;1409720;92;21406;-87
2021/11/25 06:56:36;;;;;;;86.47;45.55;;;;;;;-0.86;83.08;100790.52;1415577;92;22486;-86
2021/11/25 06:59:05;;;;;;;85.22;47.60;;;;;;;-0.74;83.19;100792.63;1420413;92;21480;-87
2021/11/25 07:01:33;;;;;;;76.45;43.48;;;;;;;-0.61;83.07;100796.35;1411467;92;21437;-86
2021/11/25 07:04:00;;;;;;;73.15;44.00;;;;;;;-0.44;83.11;100786.97;1408197;92;22769;-86
2021/11/25 07:06:28;;;;;;;74.50;42.03;;;;;;;-0.30;82.79;100800.20;1394498;92;21945;-87
2021/11/25 07:08:55;;;;;;;67.85;40.88;;;;;;;-0.24;82.70;100803.82;1411633;92;21325;-87
2021/11/25 07:11:24;;;;;;;71.07;43.10;;;;;;;-0.18;81.90;100812.64;1412106;92;21450;-87
2021/11/25 07:13:51;;;;;;;79.25;45.00;;;;;;;-0.14;81.61;100820.72;1406967;92;21443;-87
2021/11/25 07:16:19;;;;;;;91.57;50.33;;;;;;;-0.09;81.69;100820.02;1410431;92;21503;-87
2021/11/25 07:18:46;;;;;;;80.35;45.05;;;;;;;-0.04;81.63;100814.62;1407419;92;21814;-87
2021/11/25 07:21:14;;;;;;;83.33;47.27;;;;;;;0.01;81.76;100802.72;1414166;92;21349;-86
2021/11/25 07:26:10;;;;;;;82.57;47.87;;;;;;;-0.02;81.23;100800.63;1459086;86;21666;-89
2021/11/25 07:28:40;;;;;;;82.75;46.88;;;;;;;-0.08;81.46;100816.53;1462772;88;21590;-90
2021/11/25 07:31:09;;;;;;;82.63;50.00;;;;;;;-0.01;81.28;100812.72;1460754;87;21466;-91
2021/11/25 07:33:36;;;;;;;80.97;45.47;;;;;;;0.04;81.37;100807.77;1448887;87;21761;-88
2021/11/25 07:36:05;;;;;;;74.53;44.73;;;;;;;0.11;81.63;100813.06;1453014;87;21567;-84
2021/11/25 07:38:32;;;;;;;84.47;46.47;;;;;;;0.16;81.29;100807.20;1455115;87;24054;-85
2021/11/25 07:41:00;;;;;;;167.03;81.97;;;;;;;0.22;81.45;100795.19;1446161;87;21873;-84
2021/11/25 07:43:28;;;;;;;81.70;45.43;;;;;;;0.30;81.61;100793.06;1442685;88;21697;-85
2021/11/25 07:45:57;;;;;;;73.00;44.67;;;;;;;0.30;81.66;100788.33;1456461;87;21621;-85
2021/11/25 07:48:24;;;;;;;71.73;43.40;;;;;;;0.31;81.37;100789.53;1451359;87;21546;-85
2021/11/25 07:50:51;;;;;;;69.70;41.53;;;;;;;0.35;81.32;100783.28;1446166;87;21549;-84
2021/11/25 07:53:18;;;;;;;82.23;48.80;;;;;;;0.40;81.31;100787.82;1395458;87;22447;-84
2021/11/25 07:55:45;;;;;;;131.43;73.70;;;;;;;0.46;81.20;100773.63;1447988;87;21642;-85
2021/11/25 07:58:13;;;;;;;161.73;90.97;;;;;;;0.56;81.46;100776.19;1456655;88;21498;-85
2021/11/25 08:00:44;;;;;;;113.13;62.37;;;;;;;0.64;81.58;100767.53;1496679;87;21710;-85
2021/11/25 08:03:13;;;;;;;127.70;70.20;;;;;;;0.72;81.51;100765.86;1450855;87;23049;-84
2021/11/25 08:05:40;;;;;;;114.97;61.43;;;;;;;0.81;81.51;100766.70;1446558;87;21635;-84
2021/11/25 08:08:10;;;;;;;97.30;55.17;;;;;;;0.89;81.44;100763.25;1481517;87;23664;-85
2021/11/25 08:10:38;;;;;;;83.27;51.23;;;;;;;1.01;81.41;100751.83;1465250;88;22965;-85
2021/11/25 08:13:05;;;;;;;95.90;57.93;;;;;;;1.08;81.31;100745.36;1464217;88;22174;-85
2021/11/25 08:15:34;;;;;;;143.53;81.10;;;;;;;1.19;81.04;100749.56;1454821;88;21494;-87
2021/11/25 08:18:02;;;;;;;77.17;48.03;;;;;;;1.18;80.77;100737.89;1455730;87;21931;-90
2021/11/25 08:20:29;;;;;;;81.80;47.17;;;;;;;1.22;80.55;100734.22;1429877;89;21562;-90
2021/11/25 08:23:01;;;;;;;78.23;47.70;;;;;;;1.25;80.42;100732.29;1415125;90;22107;-90
2021/11/25 08:25:35;;;;;;;181.63;91.07;;;;;;;1.30;80.36;100729.45;1421284;90;22610;-91
2021/11/25 08:28:03;;;;;;;114.77;62.77;;;;;;;1.35;80.45;100723.50;1427137;90;21744;-89
2021/11/25 08:30:32;;;;;;;63.23;39.97;;;;;;;1.41;80.49;100714.08;1424425;90;21668;-90
2021/11/25 08:33:00;;;;;;;85.13;49.10;;;;;;;1.47;80.40;100718.13;1458802;88;21494;-91
2021/11/25 08:35:30;;;;;;;73.80;44.53;;;;;;;1.49;80.30;100713.18;1463238;88;23122;-90
2021/11/25 08:38:00;;;;;;;141.23;74.83;;;;;;;1.59;80.37;100717.45;1467158;87;21604;-89
2021/11/25 08:40:28;;;;;;;139.43;70.57;;;;;;;1.62;80.16;100712.07;1443603;88;21690;-90
2021/11/25 08:43:02;;;;;;;85.47;43.97;;;;;;;1.59;79.61;100707.02;1469844;88;21543;-90
2021/11/25 08:45:30;;;;;;;95.37;54.07;;;;;;;1.64;79.83;100707.63;1456925;88;21714;-90
2021/11/25 08:47:57;;;;;;;157.63;82.27;;;;;;;1.63;79.76;100704.61;1455884;88;21608;-89
2021/11/25 08:50:25;;;;;;;67.20;37.93;;;;;;;1.69;80.08;100707.34;1444024;87;21624;-89
2021/11/25 08:52:57;;;;;;;91.17;52.87;;;;;;;1.78;80.25;100701.63;1453091;87;24339;-89
2021/11/25 08:55:27;;;;;;;177.80;85.23;;;;;;;1.87;80.31;100698.97;1466437;87;21638;-89
2021/11/25 08:57:54;;;;;;;120.63;59.80;;;;;;;1.93;79.90;100689.52;1466034;87;22830;-89
2021/11/25 09:00:23;;;;;;;99.73;50.40;;;;;;;1.97;79.69;100689.23;1450239;87;21813;-88
2021/11/25 09:02:52;;;;;;;318.37;147.37;;;;;;;2.01;79.37;100683.38;1452232;87;21699;-88
2021/11/25 09:05:19;;;;;;;92.33;50.73;;;;;;;2.04;79.51;100681.89;1451024;87;21724;-89
2021/11/25 09:07:46;;;;;;;98.70;50.60;;;;;;;2.13;79.47;100683.14;1448347;87;23847;-89
2021/11/25 09:10:13;;;;;;;115.90;59.77;;;;;;;2.24;79.57;100674.23;1463212;87;21804;-90
2021/11/25 09:12:40;;;;;;;127.63;63.67;;;;;;;2.31;79.26;100669.05;1464105;87;21708;-89
2021/11/25 09:15:08;;;;;;;161.33;77.47;;;;;;;2.40;79.23;100663.75;1444114;88;21939;-90
2021/11/25 09:17:36;;;;;;;243.27;112.73;;;;;;;2.49;79.35;100660.13;1452104;87;21764;-90
2021/11/25 09:20:09;;;;;;;131.53;65.50;;;;;;;2.53;78.38;100659.94;1464729;87;22601;-90
2021/11/25 09:22:38;;;;;;;169.07;79.33;;;;;;;2.54;78.24;100650.72;1439660;87;21874;-90
2021/11/25 09:25:07;;;;;;;97.33;50.87;;;;;;;2.61;78.07;100640.27;1447349;87;21925;-90
2021/11/25 09:27:34;;;;;;;49.10;31.93;;;;;;;2.69;78.40;100634.59;1455317;88;21845;-89
2021/11/25 09:30:04;;;;;;;55.93;33.30;;;;;;;2.82;77.79;100634.23;1443718;87;21828;-89
2021/11/25 09:32:31;;;;;;;54.57;32.00;;;;;;;2.89;77.69;100634.69;1437753;89;22357;-88
2021/11/25 09:34:58;;;;;;;52.00;31.47;;;;;;;2.89;77.69;100634.69;1465697;87;21910;-87
2021/11/25 09:37:26;;;;;;;82.93;46.47;;;;;;;2.98;77.88;100631.51;1457738;87;21834;-89
2021/11/25 09:39:53;;;;;;;50.17;30.80;;;;;;;3.09;77.45;100622.54;1454385;87;21933;-89
2021/11/25 09:42:21;;;;;;;63.00;39.13;;;;;;;3.09;77.45;100622.54;1448801;87;22121;-89
2021/11/25 09:44:48;;;;;;;76.20;42.93;;;;;;;3.09;77.12;100613.39;1456069;87;22183;-88
2021/11/25 09:47:16;;;;;;;78.87;44.93;;;;;;;3.11;77.27;100599.75;1442718;88;22185;-87
2021/11/25 09:49:45;;;;;;;92.60;51.20;;;;;;;3.17;76.51;100588.08;1452240;87;22080;-89
2021/11/25 09:52:12;;;;;;;50.70;30.63;;;;;;;3.17;76.51;100588.08;1454825;87;23069;-89
2021/11/25 09:54:40;;;;;;;53.70;30.17;;;;;;;3.21;76.74;100581.70;1457860;87;22430;-89
2021/11/25 09:57:07;;;;;;;44.47;26.40;;;;;;;3.29;76.33;100594.30;1453692;88;22252;-88
2021/11/25 09:59:34;;;;;;;48.63;29.00;;;;;;;3.54;77.19;100583.96;1456099;87;22150;-88
2021/11/25 10:02:01;;;;;;;44.00;26.73;;;;;;;3.54;77.19;100583.96;1452344;87;23562;-87
2021/11/25 10:04:29;;;;;;;51.27;30.53;;;;;;;3.72;77.00;100590.25;1459102;87;22317;-88
2021/11/25 10:06:59;;;;;;;49.80;30.23;;;;;;;3.87;76.67;100593.64;1463362;88;22055;-89
2021/11/25 10:09:39;;;;;;;54.80;31.60;;;;;;;3.94;76.42;100594.45;1508602;88;22136;-87
2021/11/25 10:12:37;;;;;;;55.53;30.63;;;;;;;4.02;76.14;100596.55;1522031;87;22495;-88
2021/11/25 10:15:29;;;;;;;48.80;31.20;;;;;;;4.04;75.23;100590.75;1457409;87;22083;-89
2021/11/25 10:18:01;;;;;;;55.87;29.23;;;;;;;4.07;75.69;100580.91;1454140;88;22151;-88
2021/11/25 10:20:40;;;;;;;44.07;28.80;;;;;;;4.12;75.19;100577.16;1458000;87;22242;-87
2021/11/25 10:23:16;;;;;;;47.87;30.57;;;;;;;4.19;75.22;100573.17;1449693;87;22247;-88
2021/11/25 10:25:57;;;;;;;45.07;29.43;;;;;;;4.25;74.73;100576.68;1441619;88;22527;-87
2021/11/25 10:28:41;;;;;;;48.20;28.10;;;;;;;4.25;74.50;100565.73;1450138;89;22127;-87
2021/11/25 10:31:14;;;;;;;45.37;26.60;;;;;;;4.29;74.69;100567.69;1450394;89;22229;-83
2021/11/25 10:33:57;;;;;;;46.87;29.40;;;;;;;4.27;73.47;100565.64;1447457;89;22325;-86
2021/11/25 10:40:09;;;;;;;46.20;27.80;;;;;;;4.28;74.27;100558.13;1449305;89;22355;-86
2021/11/25 10:42:31;;;;;;;51.53;29.43;;;;;;;4.36;74.40;100550.59;1435962;89;23025;-86
2021/11/25 10:44:59;;;;;;;44.57;27.67;;;;;;;4.44;74.02;100536.98;1438010;89;22439;-85
2021/11/25 10:47:28;;;;;;;46.00;29.03;;;;;;;4.50;73.83;100538.69;1442003;89;22127;-86
2021/11/25 10:50:04;;;;;;;42.20;27.90;;;;;;;4.59;73.78;100548.18;1447644;89;22498;-86
2021/11/25 10:52:45;;;;;;;50.07;29.67;;;;;;;4.65;73.51;100547.75;1443233;89;22154;-86
2021/11/25 10:55:22;;;;;;;52.90;31.97;;;;;;;4.70;73.73;100528.61;1443127;89;23068;-85
2021/11/25 10:57:54;;;;;;;44.83;32.67;;;;;;;4.81;73.84;100523.45;1430486;90;21444;-86
2021/11/25 11:00:39;;;;;;;;;;;;;;;4.88;73.43;100519.44;1452258;89;22150;-86
2021/11/25 11:03:22;;;;;;;49.10;33.93;;;;;;;4.73;71.13;100510.05;1448909;88;20390;-86
2021/11/25 11:05:56;;;;;;;49.60;33.07;;;;;;;4.62;71.82;100506.85;1449853;89;22326;-86
2021/11/25 11:08:26;;;;;;;48.37;32.97;;;;;;;4.62;72.60;100500.30;1445075;89;22203;-86
2021/11/25 11:11:02;;;;;;;55.00;35.00;;;;;;;4.74;72.62;100480.24;1430938;89;22152;-85
2021/11/25 11:13:41;;;;;;;56.63;35.37;;;;;;;4.74;72.62;100480.24;1447975;89;21407;-86
2021/11/25 11:16:24;;;;;;;56.77;34.17;;;;;;;4.80;72.42;100482.42;1448177;89;21458;-88
2021/11/25 11:21:41;;;;;;;45.80;29.53;;;;;;;5.03;72.76;100489.13;1458113;89;22280;-86
2021/11/25 11:24:16;;;;;;;61.90;31.83;;;;;;;5.15;72.88;100482.98;1448792;89;21482;-88
2021/11/25 11:26:58;;;;;;;47.60;30.70;;;;;;;5.32;72.92;100476.06;1448651;89;21428;-86
2021/11/25 11:29:32;;;;;;;56.07;32.60;;;;;;;5.43;72.23;100466.06;1451930;89;21510;-86
2021/11/25 11:32:04;;;;;;;53.00;32.73;;;;;;;5.40;70.49;100452.69;1450951;89;21445;-88
2021/11/25 11:34:33;;;;;;;51.23;32.20;;;;;;;5.46;71.63;100454.50;1456328;89;21444;-88
2021/11/25 11:37:02;;;;;;;52.67;31.63;;;;;;;5.50;71.45;100452.02;1454250;89;21434;-88
2021/11/25 11:39:32;;;;;;;51.83;31.13;;;;;;;5.54;71.12;100446.89;1447087;89;21435;-86
2021/11/25 11:42:02;;;;;;;50.08;33.42;;;;;;;5.59;71.49;100440.83;1453617;87;21338;-87
2021/11/25 11:44:30;;;;;;;59.88;33.18;;;;;;;5.69;71.60;100439.17;1441378;87;21470;-86
2021/11/25 11:47:06;;;;;;;48.67;32.63;;;;;;;5.79;71.37;100436.22;1464411;87;21518;-87